sensor_id;sensor_type;location;lat;lon;timestamp;temperature;humidity
23089;DHT22;11713;48.506;8.966;2022-11-06T00:00:12;3.70;99.90
23089;DHT22;11713;48.506;8.966;2022-11-06T00:02:38;3.80;99.90
23089;DHT22;11713;48.506;8.966;2022-11-06T00:05:05;3.80;99.90
23089;DHT22;11713;48.506;8.966;2022-11-06T00:07:49;3.90;99.90
23089;DHT22;11713;48.506;8.966;2022-11-06T00:10:19;3.90;99.90
23089;DHT22;11713;48.506;8.966;2022-11-06T00:12:45;3.90;99.90
23089;DHT22;11713;48.506;8.966;2022-11-06T00:15:11;3.90;99.90
23089;DHT22;11713;48.506;8.966;2022-11-06T00:17:37;3.90;99.90
23089;DHT22;11713;48.506;8.966;2022-11-06T00:20:04;3.80;99.90
23089;DHT22;11713;48.506;8.966;2022-11-06T00:22:35;3.70;99.90
23089;DHT22;11713;48.506;8.966;2022-11-06T00:25:02;3.70;99.90
23089;DHT22;11713;48.506;8.966;2022-11-06T00:27:28;3.70;99.90
23089;DHT22;11713;48.506;8.966;2022-11-06T00:29:54;3.70;99.90
23089;DHT22;11713;48.506;8.966;2022-11-06T00:32:20;3.70;99.90
23089;DHT22;11713;48.506;8.966;2022-11-06T00:34:46;3.80;99.90
23089;DHT22;11713;48.506;8.966;2022-11-06T00:37:13;3.80;99.90
23089;DHT22;11713;48.506;8.966;2022-11-06T00:39:39;3.70;99.90
23089;DHT22;11713;48.506;8.966;2022-11-06T00:42:05;3.70;99.90
23089;DHT22;11713;48.506;8.966;2022-11-06T00:44:31;3.70;99.90
23089;DHT22;11713;48.506;8.966;2022-11-06T00:46:56;3.60;99.90
23089;DHT22;11713;48.506;8.966;2022-11-06T00:49:22;3.60;99.90
23089;DHT22;11713;48.506;8.966;2022-11-06T00:51:48;3.60;99.90
23089;DHT22;11713;48.506;8.966;2022-11-06T00:54:14;3.60;99.90
23089;DHT22;11713;48.506;8.966;2022-11-06T00:56:40;3.60;99.90
23089;DHT22;11713;48.506;8.966;2022-11-06T00:59:12;3.50;99.90
23089;DHT22;11713;48.506;8.966;2022-11-06T01:01:43;3.50;99.90
23089;DHT22;11713;48.506;8.966;2022-11-06T01:04:19;3.40;99.90
23089;DHT22;11713;48.506;8.966;2022-11-06T01:06:48;3.50;99.90
23089;DHT22;11713;48.506;8.966;2022-11-06T01:09:16;3.40;99.90
23089;DHT22;11713;48.506;8.966;2022-11-06T01:11:51;3.30;99.90
23089;DHT22;11713;48.506;8.966;2022-11-06T01:14:19;3.20;99.90
23089;DHT22;11713;48.506;8.966;2022-11-06T01:16:45;3.20;99.90
23089;DHT22;11713;48.506;8.966;2022-11-06T01:19:12;3.20;99.90
23089;DHT22;11713;48.506;8.966;2022-11-06T01:21:42;3.20;99.90
23089;DHT22;11713;48.506;8.966;2022-11-06T01:24:27;3.20;99.90
23089;DHT22;11713;48.506;8.966;2022-11-06T01:26:54;3.20;99.90
23089;DHT22;11713;48.506;8.966;2022-11-06T01:32:29;3.30;99.90
23089;DHT22;11713;48.506;8.966;2022-11-06T01:34:54;3.30;99.90
23089;DHT22;11713;48.506;8.966;2022-11-06T01:37:20;3.30;99.90
23089;DHT22;11713;48.506;8.966;2022-11-06T01:39:48;3.30;99.90
23089;DHT22;11713;48.506;8.966;2022-11-06T01:42:14;3.20;99.90
23089;DHT22;11713;48.506;8.966;2022-11-06T01:47:25;3.10;99.90
23089;DHT22;11713;48.506;8.966;2022-11-06T01:49:56;3.10;99.90
23089;DHT22;11713;48.506;8.966;2022-11-06T01:52:25;3.10;99.90
23089;DHT22;11713;48.506;8.966;2022-11-06T01:54:56;3.00;99.90
23089;DHT22;11713;48.506;8.966;2022-11-06T01:57:23;3.10;99.90
23089;DHT22;11713;48.506;8.966;2022-11-06T01:59:50;3.10;99.90
23089;DHT22;11713;48.506;8.966;2022-11-06T02:02:18;3.20;99.90
23089;DHT22;11713;48.506;8.966;2022-11-06T02:04:45;3.20;99.90
23089;DHT22;11713;48.506;8.966;2022-11-06T02:07:13;3.20;99.90
23089;DHT22;11713;48.506;8.966;2022-11-06T02:09:40;3.10;99.90
23089;DHT22;11713;48.506;8.966;2022-11-06T02:12:41;3.10;99.90
23089;DHT22;11713;48.506;8.966;2022-11-06T02:23:56;3.00;99.90
23089;DHT22;11713;48.506;8.966;2022-11-06T02:26:53;3.00;99.90
23089;DHT22;11713;48.506;8.966;2022-11-06T02:29:32;3.00;99.90
23089;DHT22;11713;48.506;8.966;2022-11-06T02:32:06;3.00;99.90
23089;DHT22;11713;48.506;8.966;2022-11-06T02:34:36;3.00;99.90
23089;DHT22;11713;48.506;8.966;2022-11-06T02:37:08;3.00;99.90
23089;DHT22;11713;48.506;8.966;2022-11-06T02:39:38;3.00;99.90
23089;DHT22;11713;48.506;8.966;2022-11-06T02:42:09;3.00;99.90
23089;DHT22;11713;48.506;8.966;2022-11-06T02:44:38;3.00;99.90
23089;DHT22;11713;48.506;8.966;2022-11-06T02:47:08;3.10;99.90
23089;DHT22;11713;48.506;8.966;2022-11-06T02:49:38;3.10;99.90
23089;DHT22;11713;48.506;8.966;2022-11-06T02:52:16;3.20;99.90
23089;DHT22;11713;48.506;8.966;2022-11-06T02:54:49;3.00;99.90
23089;DHT22;11713;48.506;8.966;2022-11-06T02:57:19;3.00;99.90
23089;DHT22;11713;48.506;8.966;2022-11-06T03:03:05;3.00;99.90
23089;DHT22;11713;48.506;8.966;2022-11-06T03:13:51;3.10;99.90
23089;DHT22;11713;48.506;8.966;2022-11-06T03:18:57;3.10;99.90
23089;DHT22;11713;48.506;8.966;2022-11-06T03:21:32;3.10;99.90
23089;DHT22;11713;48.506;8.966;2022-11-06T03:24:16;3.10;99.90
23089;DHT22;11713;48.506;8.966;2022-11-06T03:26:49;3.00;99.90
23089;DHT22;11713;48.506;8.966;2022-11-06T03:29:35;3.00;99.90
23089;DHT22;11713;48.506;8.966;2022-11-06T03:32:26;3.00;99.90
23089;DHT22;11713;48.506;8.966;2022-11-06T03:35:00;3.10;99.90
23089;DHT22;11713;48.506;8.966;2022-11-06T03:37:35;3.10;99.90
23089;DHT22;11713;48.506;8.966;2022-11-06T03:40:06;3.10;99.90
23089;DHT22;11713;48.506;8.966;2022-11-06T03:42:36;3.20;99.90
23089;DHT22;11713;48.506;8.966;2022-11-06T03:45:12;3.10;99.90
23089;DHT22;11713;48.506;8.966;2022-11-06T03:47:46;3.10;99.90
23089;DHT22;11713;48.506;8.966;2022-11-06T03:50:25;3.10;99.90
23089;DHT22;11713;48.506;8.966;2022-11-06T03:53:01;3.10;99.90
23089;DHT22;11713;48.506;8.966;2022-11-06T03:55:32;3.20;99.90
23089;DHT22;11713;48.506;8.966;2022-11-06T03:58:13;3.10;99.90
23089;DHT22;11713;48.506;8.966;2022-11-06T04:00:41;3.10;99.90
23089;DHT22;11713;48.506;8.966;2022-11-06T04:03:22;3.10;99.90
23089;DHT22;11713;48.506;8.966;2022-11-06T04:06:01;3.10;99.90
23089;DHT22;11713;48.506;8.966;2022-11-06T04:08:29;3.10;99.90
23089;DHT22;11713;48.506;8.966;2022-11-06T04:11:34;3.10;99.90
23089;DHT22;11713;48.506;8.966;2022-11-06T04:14:21;3.20;99.90
23089;DHT22;11713;48.506;8.966;2022-11-06T04:16:52;3.20;99.90
23089;DHT22;11713;48.506;8.966;2022-11-06T04:19:20;3.10;99.90
23089;DHT22;11713;48.506;8.966;2022-11-06T04:27:40;3.00;99.90
23089;DHT22;11713;48.506;8.966;2022-11-06T04:30:12;3.00;99.90
23089;DHT22;11713;48.506;8.966;2022-11-06T04:46:09;2.90;99.90
23089;DHT22;11713;48.506;8.966;2022-11-06T04:48:37;2.90;99.90
23089;DHT22;11713;48.506;8.966;2022-11-06T04:51:05;2.90;99.90
23089;DHT22;11713;48.506;8.966;2022-11-06T04:53:33;2.90;99.90
23089;DHT22;11713;48.506;8.966;2022-11-06T04:56:07;2.90;99.90
23089;DHT22;11713;48.506;8.966;2022-11-06T04:58:34;2.90;99.90
23089;DHT22;11713;48.506;8.966;2022-11-06T05:00:59;2.90;99.90
23089;DHT22;11713;48.506;8.966;2022-11-06T05:03:25;2.80;99.90
23089;DHT22;11713;48.506;8.966;2022-11-06T05:05:51;2.90;99.90
23089;DHT22;11713;48.506;8.966;2022-11-06T05:08:19;2.90;99.90
23089;DHT22;11713;48.506;8.966;2022-11-06T05:10:46;2.90;99.90
23089;DHT22;11713;48.506;8.966;2022-11-06T05:13:13;2.70;99.90
23089;DHT22;11713;48.506;8.966;2022-11-06T05:15:39;2.70;99.90
23089;DHT22;11713;48.506;8.966;2022-11-06T05:18:06;2.60;99.90
23089;DHT22;11713;48.506;8.966;2022-11-06T05:20:32;2.50;99.90
23089;DHT22;11713;48.506;8.966;2022-11-06T05:22:58;2.20;99.90
23089;DHT22;11713;48.506;8.966;2022-11-06T05:25:37;2.10;99.90
23089;DHT22;11713;48.506;8.966;2022-11-06T05:28:06;2.10;99.90
23089;DHT22;11713;48.506;8.966;2022-11-06T05:30:34;2.20;99.90
23089;DHT22;11713;48.506;8.966;2022-11-06T05:33:00;2.40;99.90
23089;DHT22;11713;48.506;8.966;2022-11-06T05:35:26;2.40;99.90
23089;DHT22;11713;48.506;8.966;2022-11-06T05:37:58;2.50;99.90
23089;DHT22;11713;48.506;8.966;2022-11-06T05:40:24;2.60;99.90
23089;DHT22;11713;48.506;8.966;2022-11-06T05:42:49;2.70;99.90
23089;DHT22;11713;48.506;8.966;2022-11-06T05:45:15;2.70;99.90
23089;DHT22;11713;48.506;8.966;2022-11-06T05:47:41;2.80;99.90
23089;DHT22;11713;48.506;8.966;2022-11-06T05:50:08;2.80;99.90
23089;DHT22;11713;48.506;8.966;2022-11-06T05:52:34;2.80;99.90
23089;DHT22;11713;48.506;8.966;2022-11-06T05:55:29;2.90;99.90
23089;DHT22;11713;48.506;8.966;2022-11-06T05:57:56;2.80;99.90
23089;DHT22;11713;48.506;8.966;2022-11-06T06:03:29;2.80;99.90
23089;DHT22;11713;48.506;8.966;2022-11-06T06:05:55;2.80;99.90
23089;DHT22;11713;48.506;8.966;2022-11-06T06:08:21;2.80;99.90
23089;DHT22;11713;48.506;8.966;2022-11-06T06:10:47;2.80;99.90
23089;DHT22;11713;48.506;8.966;2022-11-06T06:13:14;2.80;99.90
23089;DHT22;11713;48.506;8.966;2022-11-06T06:15:41;2.90;99.90
23089;DHT22;11713;48.506;8.966;2022-11-06T06:18:08;2.80;99.90
23089;DHT22;11713;48.506;8.966;2022-11-06T06:20:34;2.80;99.90
23089;DHT22;11713;48.506;8.966;2022-11-06T06:23:01;2.70;99.90
23089;DHT22;11713;48.506;8.966;2022-11-06T06:25:27;2.70;99.90
23089;DHT22;11713;48.506;8.966;2022-11-06T06:27:54;2.80;99.90
23089;DHT22;11713;48.506;8.966;2022-11-06T06:30:20;2.70;99.90
23089;DHT22;11713;48.506;8.966;2022-11-06T06:32:48;2.70;99.90
23089;DHT22;11713;48.506;8.966;2022-11-06T06:35:15;2.60;99.90
23089;DHT22;11713;48.506;8.966;2022-11-06T06:37:49;2.70;99.90
23089;DHT22;11713;48.506;8.966;2022-11-06T06:40:15;2.60;99.90
23089;DHT22;11713;48.506;8.966;2022-11-06T06:42:41;2.70;99.90
23089;DHT22;11713;48.506;8.966;2022-11-06T06:45:07;2.70;99.90
23089;DHT22;11713;48.506;8.966;2022-11-06T06:47:32;2.80;99.90
23089;DHT22;11713;48.506;8.966;2022-11-06T06:49:58;2.80;99.90
23089;DHT22;11713;48.506;8.966;2022-11-06T06:52:24;2.80;99.90
23089;DHT22;11713;48.506;8.966;2022-11-06T06:54:50;2.90;99.90
23089;DHT22;11713;48.506;8.966;2022-11-06T06:57:16;2.90;99.90
23089;DHT22;11713;48.506;8.966;2022-11-06T06:59:42;2.90;99.90
23089;DHT22;11713;48.506;8.966;2022-11-06T07:02:11;2.90;99.90
23089;DHT22;11713;48.506;8.966;2022-11-06T07:04:37;2.90;99.90
23089;DHT22;11713;48.506;8.966;2022-11-06T07:07:04;3.00;99.90
23089;DHT22;11713;48.506;8.966;2022-11-06T07:09:30;3.00;99.90
23089;DHT22;11713;48.506;8.966;2022-11-06T07:11:56;3.00;99.90
23089;DHT22;11713;48.506;8.966;2022-11-06T07:14:22;3.00;99.90
23089;DHT22;11713;48.506;8.966;2022-11-06T07:16:48;3.00;99.90
23089;DHT22;11713;48.506;8.966;2022-11-06T07:19:14;3.10;99.90
23089;DHT22;11713;48.506;8.966;2022-11-06T07:21:40;3.10;99.90
23089;DHT22;11713;48.506;8.966;2022-11-06T07:24:06;3.10;99.90
23089;DHT22;11713;48.506;8.966;2022-11-06T07:26:32;3.10;99.90
23089;DHT22;11713;48.506;8.966;2022-11-06T07:28:57;3.10;99.90
23089;DHT22;11713;48.506;8.966;2022-11-06T07:31:23;3.10;99.90
23089;DHT22;11713;48.506;8.966;2022-11-06T07:33:49;3.10;99.90
23089;DHT22;11713;48.506;8.966;2022-11-06T07:36:15;3.10;99.90
23089;DHT22;11713;48.506;8.966;2022-11-06T07:38:42;3.20;99.90
23089;DHT22;11713;48.506;8.966;2022-11-06T07:41:11;3.10;99.90
23089;DHT22;11713;48.506;8.966;2022-11-06T07:43:38;3.10;99.90
23089;DHT22;11713;48.506;8.966;2022-11-06T07:46:06;3.10;99.90
23089;DHT22;11713;48.506;8.966;2022-11-06T07:48:33;3.20;99.90
23089;DHT22;11713;48.506;8.966;2022-11-06T07:51:01;3.20;99.90
23089;DHT22;11713;48.506;8.966;2022-11-06T07:53:27;3.20;99.90
23089;DHT22;11713;48.506;8.966;2022-11-06T07:55:54;3.20;99.90
23089;DHT22;11713;48.506;8.966;2022-11-06T07:58:22;3.30;99.90
23089;DHT22;11713;48.506;8.966;2022-11-06T08:00:56;3.30;99.90
23089;DHT22;11713;48.506;8.966;2022-11-06T08:03:23;3.30;99.90
23089;DHT22;11713;48.506;8.966;2022-11-06T08:05:49;3.40;99.90
23089;DHT22;11713;48.506;8.966;2022-11-06T08:08:15;3.40;99.90
23089;DHT22;11713;48.506;8.966;2022-11-06T08:10:41;3.40;99.90
23089;DHT22;11713;48.506;8.966;2022-11-06T08:13:14;3.30;99.90
23089;DHT22;11713;48.506;8.966;2022-11-06T08:15:40;3.40;99.90
23089;DHT22;11713;48.506;8.966;2022-11-06T08:18:08;3.40;99.90
23089;DHT22;11713;48.506;8.966;2022-11-06T08:20:35;3.50;99.90
23089;DHT22;11713;48.506;8.966;2022-11-06T08:23:02;3.50;99.90
23089;DHT22;11713;48.506;8.966;2022-11-06T08:25:29;3.40;99.90
23089;DHT22;11713;48.506;8.966;2022-11-06T08:27:56;3.50;99.90
23089;DHT22;11713;48.506;8.966;2022-11-06T08:30:23;3.50;99.90
23089;DHT22;11713;48.506;8.966;2022-11-06T08:32:49;3.50;99.90
23089;DHT22;11713;48.506;8.966;2022-11-06T08:35:15;3.50;99.90
23089;DHT22;11713;48.506;8.966;2022-11-06T08:37:41;3.50;99.90
23089;DHT22;11713;48.506;8.966;2022-11-06T08:40:07;3.40;99.90
23089;DHT22;11713;48.506;8.966;2022-11-06T08:42:33;3.40;99.90
23089;DHT22;11713;48.506;8.966;2022-11-06T08:44:59;3.40;99.90
23089;DHT22;11713;48.506;8.966;2022-11-06T08:47:25;3.50;99.90
23089;DHT22;11713;48.506;8.966;2022-11-06T08:49:51;3.50;99.90
23089;DHT22;11713;48.506;8.966;2022-11-06T08:52:17;3.60;99.90
23089;DHT22;11713;48.506;8.966;2022-11-06T08:54:43;3.60;99.90
23089;DHT22;11713;48.506;8.966;2022-11-06T08:57:09;3.60;99.90
23089;DHT22;11713;48.506;8.966;2022-11-06T08:59:35;3.70;99.90
23089;DHT22;11713;48.506;8.966;2022-11-06T09:02:01;3.70;99.90
23089;DHT22;11713;48.506;8.966;2022-11-06T09:04:29;3.70;99.90
23089;DHT22;11713;48.506;8.966;2022-11-06T09:06:58;3.80;99.90
23089;DHT22;11713;48.506;8.966;2022-11-06T09:09:23;3.90;99.90
23089;DHT22;11713;48.506;8.966;2022-11-06T09:11:57;4.00;99.90
23089;DHT22;11713;48.506;8.966;2022-11-06T09:14:23;4.10;99.90
23089;DHT22;11713;48.506;8.966;2022-11-06T09:16:49;4.20;99.90
23089;DHT22;11713;48.506;8.966;2022-11-06T09:19:24;4.20;99.90
23089;DHT22;11713;48.506;8.966;2022-11-06T09:21:53;4.30;99.90
23089;DHT22;11713;48.506;8.966;2022-11-06T09:24:20;4.30;99.90
23089;DHT22;11713;48.506;8.966;2022-11-06T09:26:46;4.30;99.90
23089;DHT22;11713;48.506;8.966;2022-11-06T09:29:12;4.40;99.90
23089;DHT22;11713;48.506;8.966;2022-11-06T09:31:38;4.40;99.90
23089;DHT22;11713;48.506;8.966;2022-11-06T09:34:03;4.40;99.90
23089;DHT22;11713;48.506;8.966;2022-11-06T09:36:29;4.50;99.90
23089;DHT22;11713;48.506;8.966;2022-11-06T09:38:56;4.50;99.90
23089;DHT22;11713;48.506;8.966;2022-11-06T09:46:50;4.70;99.90
23089;DHT22;11713;48.506;8.966;2022-11-06T09:52:41;4.80;99.90
23089;DHT22;11713;48.506;8.966;2022-11-06T09:55:20;4.60;99.90
23089;DHT22;11713;48.506;8.966;2022-11-06T09:57:58;4.70;99.90
23089;DHT22;11713;48.506;8.966;2022-11-06T10:00:26;4.70;99.90
23089;DHT22;11713;48.506;8.966;2022-11-06T10:05:55;4.80;99.90
23089;DHT22;11713;48.506;8.966;2022-11-06T10:08:23;4.80;99.90
23089;DHT22;11713;48.506;8.966;2022-11-06T10:11:03;4.80;99.90
23089;DHT22;11713;48.506;8.966;2022-11-06T10:13:54;4.90;99.90
23089;DHT22;11713;48.506;8.966;2022-11-06T10:16:50;5.00;99.90
23089;DHT22;11713;48.506;8.966;2022-11-06T10:19:38;5.10;99.90
23089;DHT22;11713;48.506;8.966;2022-11-06T10:24:38;5.10;99.90
23089;DHT22;11713;48.506;8.966;2022-11-06T10:27:24;5.20;99.90
23089;DHT22;11713;48.506;8.966;2022-11-06T10:30:01;5.30;99.90
23089;DHT22;11713;48.506;8.966;2022-11-06T10:36:09;5.40;99.90
23089;DHT22;11713;48.506;8.966;2022-11-06T10:38:32;5.40;99.90
23089;DHT22;11713;48.506;8.966;2022-11-06T10:41:00;5.50;99.90
23089;DHT22;11713;48.506;8.966;2022-11-06T10:46:27;5.50;99.90
23089;DHT22;11713;48.506;8.966;2022-11-06T10:48:58;5.40;99.90
23089;DHT22;11713;48.506;8.966;2022-11-06T11:00:03;6.00;99.90
23089;DHT22;11713;48.506;8.966;2022-11-06T11:02:35;6.20;99.90
23089;DHT22;11713;48.506;8.966;2022-11-06T11:05:10;6.30;99.90
23089;DHT22;11713;48.506;8.966;2022-11-06T11:07:38;6.40;99.90
23089;DHT22;11713;48.506;8.966;2022-11-06T11:12:50;6.50;99.90
23089;DHT22;11713;48.506;8.966;2022-11-06T11:15:19;6.50;99.90
23089;DHT22;11713;48.506;8.966;2022-11-06T11:20:44;6.60;99.90
23089;DHT22;11713;48.506;8.966;2022-11-06T11:23:23;6.50;99.90
23089;DHT22;11713;48.506;8.966;2022-11-06T11:26:16;6.70;99.90
23089;DHT22;11713;48.506;8.966;2022-11-06T11:28:53;6.70;99.90
23089;DHT22;11713;48.506;8.966;2022-11-06T11:31:31;6.80;99.90
23089;DHT22;11713;48.506;8.966;2022-11-06T11:34:01;6.80;99.90
23089;DHT22;11713;48.506;8.966;2022-11-06T11:36:58;6.90;99.90
23089;DHT22;11713;48.506;8.966;2022-11-06T11:39:31;6.90;99.90
23089;DHT22;11713;48.506;8.966;2022-11-06T11:42:30;7.10;99.90
23089;DHT22;11713;48.506;8.966;2022-11-06T11:45:21;7.20;99.90
23089;DHT22;11713;48.506;8.966;2022-11-06T11:47:51;7.20;99.90
23089;DHT22;11713;48.506;8.966;2022-11-06T11:50:31;7.30;99.90
23089;DHT22;11713;48.506;8.966;2022-11-06T11:53:00;7.40;99.90
23089;DHT22;11713;48.506;8.966;2022-11-06T11:55:29;7.50;99.90
23089;DHT22;11713;48.506;8.966;2022-11-06T11:58:01;7.50;99.90
23089;DHT22;11713;48.506;8.966;2022-11-06T12:00:33;7.60;99.90
23089;DHT22;11713;48.506;8.966;2022-11-06T12:03:05;7.70;99.90
23089;DHT22;11713;48.506;8.966;2022-11-06T12:05:40;7.90;99.90
23089;DHT22;11713;48.506;8.966;2022-11-06T12:08:13;8.00;99.90
23089;DHT22;11713;48.506;8.966;2022-11-06T12:10:51;7.90;99.90
23089;DHT22;11713;48.506;8.966;2022-11-06T12:13:28;8.10;99.90
23089;DHT22;11713;48.506;8.966;2022-11-06T12:16:19;8.20;99.90
23089;DHT22;11713;48.506;8.966;2022-11-06T12:18:47;8.40;99.90
23089;DHT22;11713;48.506;8.966;2022-11-06T12:21:41;8.50;99.90
23089;DHT22;11713;48.506;8.966;2022-11-06T12:24:19;8.50;99.90
23089;DHT22;11713;48.506;8.966;2022-11-06T12:26:50;8.40;99.90
23089;DHT22;11713;48.506;8.966;2022-11-06T12:29:52;8.50;99.90
23089;DHT22;11713;48.506;8.966;2022-11-06T12:32:47;8.40;99.90
23089;DHT22;11713;48.506;8.966;2022-11-06T12:35:30;8.40;99.90
23089;DHT22;11713;48.506;8.966;2022-11-06T12:38:23;8.50;99.90
23089;DHT22;11713;48.506;8.966;2022-11-06T12:40:58;8.50;99.90
23089;DHT22;11713;48.506;8.966;2022-11-06T12:43:30;8.60;99.90
23089;DHT22;11713;48.506;8.966;2022-11-06T12:57:09;9.10;99.90
23089;DHT22;11713;48.506;8.966;2022-11-06T13:00:07;9.30;99.90
23089;DHT22;11713;48.506;8.966;2022-11-06T13:03:00;9.40;99.90
23089;DHT22;11713;48.506;8.966;2022-11-06T13:16:59;9.60;99.90
23089;DHT22;11713;48.506;8.966;2022-11-06T13:25:24;9.60;99.90
23089;DHT22;11713;48.506;8.966;2022-11-06T13:30:22;9.50;99.90
23089;DHT22;11713;48.506;8.966;2022-11-06T13:35:36;9.50;99.90
23089;DHT22;11713;48.506;8.966;2022-11-06T13:38:06;9.50;99.90
23089;DHT22;11713;48.506;8.966;2022-11-06T13:40:38;9.50;99.90
23089;DHT22;11713;48.506;8.966;2022-11-06T13:43:25;9.40;99.90
23089;DHT22;11713;48.506;8.966;2022-11-06T13:59:22;9.40;99.90
23089;DHT22;11713;48.506;8.966;2022-11-06T14:07:35;9.30;99.90
23089;DHT22;11713;48.506;8.966;2022-11-06T14:10:02;9.20;99.90
23089;DHT22;11713;48.506;8.966;2022-11-06T14:12:29;9.20;99.90
23089;DHT22;11713;48.506;8.966;2022-11-06T14:17:58;9.10;99.90
23089;DHT22;11713;48.506;8.966;2022-11-06T14:26:10;9.10;99.90
23089;DHT22;11713;48.506;8.966;2022-11-06T14:28:41;9.00;99.90
23089;DHT22;11713;48.506;8.966;2022-11-06T14:31:09;9.00;99.90
23089;DHT22;11713;48.506;8.966;2022-11-06T14:36:34;9.10;99.90
23089;DHT22;11713;48.506;8.966;2022-11-06T14:39:00;9.10;99.90
23089;DHT22;11713;48.506;8.966;2022-11-06T14:44:19;9.10;99.90
23089;DHT22;11713;48.506;8.966;2022-11-06T14:46:50;9.10;99.90
23089;DHT22;11713;48.506;8.966;2022-11-06T14:52:00;9.00;99.90
23089;DHT22;11713;48.506;8.966;2022-11-06T14:54:27;9.00;99.90
23089;DHT22;11713;48.506;8.966;2022-11-06T14:56:54;9.00;99.90
23089;DHT22;11713;48.506;8.966;2022-11-06T14:59:36;9.10;99.90
23089;DHT22;11713;48.506;8.966;2022-11-06T15:02:15;9.10;99.90
23089;DHT22;11713;48.506;8.966;2022-11-06T15:04:57;9.10;99.90
23089;DHT22;11713;48.506;8.966;2022-11-06T15:10:52;9.10;99.90
23089;DHT22;11713;48.506;8.966;2022-11-06T15:13:24;9.10;99.90
23089;DHT22;11713;48.506;8.966;2022-11-06T15:16:03;9.00;99.90
23089;DHT22;11713;48.506;8.966;2022-11-06T15:18:35;9.00;99.90
23089;DHT22;11713;48.506;8.966;2022-11-06T15:21:06;8.90;99.90
23089;DHT22;11713;48.506;8.966;2022-11-06T15:24:02;8.90;99.90
23089;DHT22;11713;48.506;8.966;2022-11-06T15:26:40;8.80;99.90
23089;DHT22;11713;48.506;8.966;2022-11-06T15:29:19;8.80;99.90
23089;DHT22;11713;48.506;8.966;2022-11-06T15:32:02;8.70;99.90
23089;DHT22;11713;48.506;8.966;2022-11-06T15:34:32;8.70;99.90
23089;DHT22;11713;48.506;8.966;2022-11-06T15:37:13;8.60;99.90
23089;DHT22;11713;48.506;8.966;2022-11-06T15:39:55;8.60;99.90
23089;DHT22;11713;48.506;8.966;2022-11-06T15:42:35;8.60;99.90
23089;DHT22;11713;48.506;8.966;2022-11-06T15:45:17;8.60;99.90
23089;DHT22;11713;48.506;8.966;2022-11-06T15:47:59;8.50;99.90
23089;DHT22;11713;48.506;8.966;2022-11-06T15:53:32;8.40;99.90
23089;DHT22;11713;48.506;8.966;2022-11-06T15:56:04;8.30;99.90
23089;DHT22;11713;48.506;8.966;2022-11-06T15:58:36;8.30;99.90
23089;DHT22;11713;48.506;8.966;2022-11-06T16:01:04;8.20;99.90
23089;DHT22;11713;48.506;8.966;2022-11-06T16:03:45;8.20;99.90
23089;DHT22;11713;48.506;8.966;2022-11-06T16:06:13;8.10;99.90
23089;DHT22;11713;48.506;8.966;2022-11-06T16:08:40;8.10;99.90
23089;DHT22;11713;48.506;8.966;2022-11-06T16:11:18;8.10;99.90
23089;DHT22;11713;48.506;8.966;2022-11-06T16:14:01;8.10;99.90
23089;DHT22;11713;48.506;8.966;2022-11-06T16:16:43;8.10;99.90
23089;DHT22;11713;48.506;8.966;2022-11-06T16:21:51;8.00;99.90
23089;DHT22;11713;48.506;8.966;2022-11-06T16:24:18;8.00;99.90
23089;DHT22;11713;48.506;8.966;2022-11-06T16:26:47;8.00;99.90
23089;DHT22;11713;48.506;8.966;2022-11-06T16:29:21;8.00;99.90
23089;DHT22;11713;48.506;8.966;2022-11-06T16:31:57;8.00;99.90
23089;DHT22;11713;48.506;8.966;2022-11-06T16:37:02;8.00;99.90
23089;DHT22;11713;48.506;8.966;2022-11-06T16:39:41;8.00;99.90
23089;DHT22;11713;48.506;8.966;2022-11-06T16:44:45;7.90;99.90
23089;DHT22;11713;48.506;8.966;2022-11-06T16:47:18;7.90;99.90
23089;DHT22;11713;48.506;8.966;2022-11-06T16:49:52;7.90;99.90
23089;DHT22;11713;48.506;8.966;2022-11-06T16:52:31;7.90;99.90
23089;DHT22;11713;48.506;8.966;2022-11-06T16:58:00;7.80;99.90
23089;DHT22;11713;48.506;8.966;2022-11-06T17:00:28;7.80;99.90
23089;DHT22;11713;48.506;8.966;2022-11-06T17:02:59;7.80;99.90
23089;DHT22;11713;48.506;8.966;2022-11-06T17:05:36;7.80;99.90
23089;DHT22;11713;48.506;8.966;2022-11-06T17:08:37;7.80;99.90
23089;DHT22;11713;48.506;8.966;2022-11-06T17:11:22;7.80;99.90
23089;DHT22;11713;48.506;8.966;2022-11-06T17:13:49;7.80;99.90
23089;DHT22;11713;48.506;8.966;2022-11-06T17:16:18;7.80;99.90
23089;DHT22;11713;48.506;8.966;2022-11-06T17:18:45;7.70;99.90
23089;DHT22;11713;48.506;8.966;2022-11-06T17:21:11;7.80;99.90
23089;DHT22;11713;48.506;8.966;2022-11-06T17:23:38;7.80;99.90
23089;DHT22;11713;48.506;8.966;2022-11-06T17:26:12;7.80;99.90
23089;DHT22;11713;48.506;8.966;2022-11-06T17:28:39;7.80;99.90
23089;DHT22;11713;48.506;8.966;2022-11-06T17:31:07;7.80;99.90
23089;DHT22;11713;48.506;8.966;2022-11-06T17:33:34;7.80;99.90
23089;DHT22;11713;48.506;8.966;2022-11-06T17:36:00;7.80;99.90
23089;DHT22;11713;48.506;8.966;2022-11-06T17:38:26;7.80;99.90
23089;DHT22;11713;48.506;8.966;2022-11-06T17:40:52;7.70;99.90
23089;DHT22;11713;48.506;8.966;2022-11-06T17:43:18;7.70;99.90
23089;DHT22;11713;48.506;8.966;2022-11-06T17:45:44;7.70;99.90
23089;DHT22;11713;48.506;8.966;2022-11-06T17:48:12;7.70;99.90
23089;DHT22;11713;48.506;8.966;2022-11-06T17:50:38;7.70;99.90
23089;DHT22;11713;48.506;8.966;2022-11-06T17:53:22;7.70;99.90
23089;DHT22;11713;48.506;8.966;2022-11-06T17:55:48;7.60;99.90
23089;DHT22;11713;48.506;8.966;2022-11-06T17:58:14;7.70;99.90
23089;DHT22;11713;48.506;8.966;2022-11-06T18:00:41;7.60;99.90
23089;DHT22;11713;48.506;8.966;2022-11-06T18:03:13;7.70;99.90
23089;DHT22;11713;48.506;8.966;2022-11-06T18:05:42;7.70;99.90
23089;DHT22;11713;48.506;8.966;2022-11-06T18:08:10;7.60;99.90
23089;DHT22;11713;48.506;8.966;2022-11-06T18:10:36;7.60;99.90
23089;DHT22;11713;48.506;8.966;2022-11-06T18:13:04;7.60;99.90
23089;DHT22;11713;48.506;8.966;2022-11-06T18:15:35;7.60;99.90
23089;DHT22;11713;48.506;8.966;2022-11-06T18:18:02;7.60;99.90
23089;DHT22;11713;48.506;8.966;2022-11-06T18:20:32;7.60;99.90
23089;DHT22;11713;48.506;8.966;2022-11-06T18:22:59;7.60;99.90
23089;DHT22;11713;48.506;8.966;2022-11-06T18:25:25;7.60;99.90
23089;DHT22;11713;48.506;8.966;2022-11-06T18:27:51;7.60;99.90
23089;DHT22;11713;48.506;8.966;2022-11-06T18:30:18;7.60;99.90
23089;DHT22;11713;48.506;8.966;2022-11-06T18:32:45;7.60;99.90
23089;DHT22;11713;48.506;8.966;2022-11-06T18:35:19;7.60;99.90
23089;DHT22;11713;48.506;8.966;2022-11-06T18:37:45;7.60;99.90
23089;DHT22;11713;48.506;8.966;2022-11-06T18:40:12;7.60;99.90
23089;DHT22;11713;48.506;8.966;2022-11-06T18:42:39;7.60;99.90
23089;DHT22;11713;48.506;8.966;2022-11-06T18:45:06;7.60;99.90
23089;DHT22;11713;48.506;8.966;2022-11-06T18:47:32;7.70;99.90
23089;DHT22;11713;48.506;8.966;2022-11-06T18:49:58;7.60;99.90
23089;DHT22;11713;48.506;8.966;2022-11-06T18:52:24;7.70;99.90
23089;DHT22;11713;48.506;8.966;2022-11-06T18:54:51;7.70;99.90
23089;DHT22;11713;48.506;8.966;2022-11-06T18:57:17;7.70;99.90
23089;DHT22;11713;48.506;8.966;2022-11-06T18:59:46;7.70;99.90
23089;DHT22;11713;48.506;8.966;2022-11-06T19:02:12;7.80;99.90